createdAt,value
2022-11-07T00:00:49.790Z,95273.72
2022-11-07T00:04:36.778Z,95272.50
2022-11-07T00:08:19.451Z,95281.78
2022-11-07T00:12:04.585Z,95270.06
2022-11-07T00:15:47.335Z,95282.19
2022-11-07T00:19:54.314Z,95281.78
2022-11-07T00:23:37.680Z,95282.59
2022-11-07T00:27:20.415Z,95289.47
2022-11-07T00:31:03.474Z,95285.44
2022-11-07T00:34:47.499Z,95291.91
2022-11-07T00:38:30.177Z,95293.06
2022-11-07T00:42:13.043Z,95304.03
2022-11-07T00:45:55.947Z,95317.38
2022-11-07T00:49:48.051Z,95310.31
2022-11-07T00:53:32.419Z,95312.50
2022-11-07T00:57:15.132Z,95310.47
2022-11-07T01:00:57.930Z,95326.03
2022-11-07T01:05:11.444Z,95337.97
2022-11-07T01:08:56.592Z,95328.25
2022-11-07T01:12:39.301Z,95325.41
2022-11-07T01:16:21.946Z,95340.38
2022-11-07T01:20:09.186Z,95331.06
2022-11-07T01:23:51.924Z,95329.25
2022-11-07T01:27:35.969Z,95334.31
2022-11-07T01:31:19.252Z,95332.06
2022-11-07T01:35:20.960Z,95337.53
2022-11-07T01:39:04.562Z,95347.66
2022-11-07T01:42:48.613Z,95340.38
2022-11-07T01:46:33.000Z,95338.38
2022-11-07T01:50:21.392Z,95343.66
2022-11-07T01:54:06.070Z,95354.19
2022-11-07T01:57:51.352Z,95359.81
2022-11-07T02:01:34.172Z,95348.09
2022-11-07T02:05:31.609Z,95361.84
2022-11-07T02:09:15.017Z,95352.94
2022-11-07T02:12:59.994Z,95360.66
2022-11-07T02:16:43.021Z,95360.63
2022-11-07T02:20:41.331Z,95365.72
2022-11-07T02:24:28.769Z,95368.75
2022-11-07T02:28:12.503Z,95355.81
2022-11-07T02:32:02.599Z,95358.25
2022-11-07T02:35:46.646Z,95348.94
2022-11-07T02:39:30.733Z,95357.41
2022-11-07T02:43:17.549Z,95354.16
2022-11-07T02:47:00.552Z,95359.03
2022-11-07T02:50:51.525Z,95360.84
2022-11-07T02:54:35.663Z,95362.25
2022-11-07T02:58:18.382Z,95357.00
2022-11-07T03:02:01.227Z,95353.16
2022-11-07T03:05:52.851Z,95372.56
2022-11-07T03:09:36.864Z,95357.19
2022-11-07T03:13:19.596Z,95340.63
2022-11-07T03:17:02.274Z,95349.13
2022-11-07T03:21:09.116Z,95351.94
2022-11-07T03:24:53.162Z,95363.81
2022-11-07T03:28:35.855Z,95366.66
2022-11-07T03:32:21.249Z,95368.28
2022-11-07T03:36:10.858Z,95369.13
2022-11-07T03:39:54.888Z,95365.91
2022-11-07T03:43:37.634Z,95370.75
2022-11-07T03:47:20.417Z,95376.81
2022-11-07T03:51:17.876Z,95368.69
2022-11-07T03:55:01.888Z,95378.63
2022-11-07T03:58:44.581Z,95385.84
2022-11-07T04:02:27.413Z,95379.19
2022-11-07T04:06:23.917Z,95391.50
2022-11-07T04:10:08.308Z,95392.31
2022-11-07T04:14:08.422Z,95385.84
2022-11-07T04:17:51.084Z,95393.09
2022-11-07T04:21:33.788Z,95391.66
2022-11-07T04:25:17.936Z,95385.94
2022-11-07T04:28:59.610Z,95388.34
2022-11-07T04:32:42.349Z,95386.13
2022-11-07T04:36:45.483Z,95387.53
2022-11-07T04:40:30.014Z,95399.63
2022-11-07T04:44:13.482Z,95399.59
2022-11-07T04:47:56.612Z,95406.44
2022-11-07T04:51:48.599Z,95400.38
2022-11-07T04:55:32.763Z,95402.38
2022-11-07T04:59:15.537Z,95418.91
2022-11-07T05:02:58.250Z,95423.97
2022-11-07T05:06:49.251Z,95416.06
2022-11-07T05:10:33.336Z,95420.47
2022-11-07T05:14:16.112Z,95419.59
2022-11-07T05:17:58.716Z,95420.34
2022-11-07T05:21:44.253Z,95421.75
2022-11-07T05:25:26.869Z,95429.22
2022-11-07T05:29:12.867Z,95424.75
2022-11-07T05:32:55.566Z,95433.38
2022-11-07T05:36:38.302Z,95446.88
2022-11-07T05:40:20.950Z,95435.78
2022-11-07T05:44:03.679Z,95430.28
2022-11-07T05:47:47.836Z,95442.97
2022-11-07T05:51:30.608Z,95452.47
2022-11-07T05:55:13.241Z,95445.59
2022-11-07T05:58:55.931Z,95445.78
2022-11-07T06:02:38.744Z,95447.16
2022-11-07T06:06:22.892Z,95449.16
2022-11-07T06:10:06.578Z,95447.53
2022-11-07T06:13:49.269Z,95443.09
2022-11-07T06:17:31.951Z,95453.59
2022-11-07T06:21:15.916Z,95451.53
2022-11-07T06:25:00.012Z,95464.28
2022-11-07T06:28:42.730Z,95464.09
2022-11-07T06:32:25.386Z,95457.66
2022-11-07T06:36:09.651Z,95463.72
2022-11-07T06:39:52.271Z,95456.03
2022-11-07T06:43:36.309Z,95463.28
2022-11-07T06:47:21.199Z,95464.03
2022-11-07T06:51:05.774Z,95469.91
2022-11-07T06:54:48.455Z,95487.88
2022-11-07T06:58:31.323Z,95487.50
2022-11-07T07:02:36.827Z,95495.63
2022-11-07T07:06:19.980Z,95501.28
2022-11-07T07:10:02.779Z,95499.34
2022-11-07T07:13:45.447Z,95500.63
2022-11-07T07:17:29.532Z,95496.06
2022-11-07T07:21:13.989Z,95504.78
2022-11-07T07:24:56.650Z,95506.72
2022-11-07T07:28:39.472Z,95507.78
2022-11-07T07:32:25.039Z,95503.59
2022-11-07T07:36:10.461Z,95501.22
2022-11-07T07:39:53.259Z,95499.66
2022-11-07T07:43:35.994Z,95502.72
2022-11-07T07:47:18.662Z,95510.50
2022-11-07T07:51:01.698Z,95505.91
2022-11-07T07:54:45.710Z,95504.75
2022-11-07T07:58:28.448Z,95508.41
2022-11-07T08:02:11.899Z,95512.88
2022-11-07T08:05:55.700Z,95503.97
2022-11-07T08:09:38.328Z,95506.41
2022-11-07T08:13:23.498Z,95509.25
2022-11-07T08:17:06.243Z,95508.03
2022-11-07T08:20:50.551Z,95512.06
2022-11-07T08:24:33.384Z,95510.44
2022-11-07T08:28:16.034Z,95518.94
2022-11-07T08:32:00.194Z,95500.50
2022-11-07T08:35:43.033Z,95527.66
2022-11-07T08:39:25.694Z,95525.41
2022-11-07T08:43:08.730Z,95532.09
2022-11-07T08:46:51.492Z,95516.88
2022-11-07T08:50:35.657Z,95529.00
2022-11-07T08:54:20.948Z,95522.69
2022-11-07T08:58:05.466Z,95525.69
2022-11-07T09:02:28.106Z,95520.03
2022-11-07T09:05:52.554Z,95522.03
2022-11-07T09:09:35.211Z,95517.53
2022-11-07T09:13:20.591Z,95522.34
2022-11-07T09:17:03.444Z,95536.06
2022-11-07T09:20:46.068Z,95527.28
2022-11-07T09:24:30.114Z,95530.69
2022-11-07T09:28:12.797Z,95532.25
2022-11-07T09:31:55.490Z,95542.78
2022-11-07T09:35:38.243Z,95535.84
2022-11-07T09:39:21.045Z,95541.88
2022-11-07T09:43:15.384Z,95539.25
2022-11-07T09:47:01.025Z,95538.84
2022-11-07T09:50:44.311Z,95531.22
2022-11-07T09:54:29.728Z,95542.22
2022-11-07T09:58:27.551Z,95539.25
2022-11-07T10:02:15.458Z,95529.38
2022-11-07T10:06:05.310Z,95528.94
2022-11-07T10:09:53.235Z,95527.75
2022-11-07T10:13:51.501Z,95533.28
2022-11-07T10:17:37.339Z,95550.41
2022-11-07T10:21:41.255Z,95520.72
2022-11-07T10:25:30.234Z,95530.56
2022-11-07T10:29:15.522Z,95524.69
2022-11-07T10:33:03.302Z,95527.03
2022-11-07T10:36:45.961Z,95522.28
2022-11-07T10:40:38.763Z,95521.25
2022-11-07T10:44:25.321Z,95535.28
2022-11-07T10:48:08.503Z,95520.16
2022-11-07T10:51:55.612Z,95523.19
2022-11-07T10:55:44.507Z,95525.91
2022-11-07T10:59:35.598Z,95530.47
2022-11-07T11:03:41.853Z,95518.88
2022-11-07T11:07:28.751Z,95529.28
2022-11-07T11:11:15.943Z,95528.25
2022-11-07T11:15:12.860Z,95516.78
2022-11-07T11:18:58.020Z,95521.56
2022-11-07T11:22:43.090Z,95511.53
2022-11-07T11:26:30.322Z,95525.78
2022-11-07T11:30:17.588Z,95518.28
2022-11-07T11:34:04.823Z,95517.53
2022-11-07T11:37:54.985Z,95505.94
2022-11-07T11:41:41.309Z,95508.44
2022-11-07T11:45:32.543Z,95488.72
2022-11-07T11:49:22.093Z,95501.06
2022-11-07T11:53:04.823Z,95479.63
2022-11-07T11:56:54.784Z,95484.47
2022-11-07T12:00:41.493Z,95477.72
2022-11-07T12:04:39.681Z,95493.41
2022-11-07T12:08:33.797Z,95484.56
2022-11-07T12:16:49.346Z,95480.47
2022-11-07T12:20:34.955Z,95468.66
2022-11-07T12:24:25.975Z,95465.34
2022-11-07T12:28:25.990Z,95469.78
2022-11-07T12:32:16.455Z,95470.81
2022-11-07T12:36:03.177Z,95459.16
2022-11-07T12:39:56.378Z,95456.13
2022-11-07T12:43:50.219Z,95447.81
2022-11-07T12:47:45.529Z,95448.84
2022-11-07T12:51:36.174Z,95451.94
2022-11-07T12:55:22.994Z,95445.84
2022-11-07T12:59:07.983Z,95443.91
2022-11-07T13:03:10.057Z,95445.78
2022-11-07T13:06:55.815Z,95443.03
2022-11-07T13:10:47.261Z,95455.38
2022-11-07T13:14:32.254Z,95454.22
2022-11-07T13:18:21.076Z,95465.81
2022-11-07T13:22:05.484Z,95453.13
2022-11-07T13:26:04.007Z,95453.38
2022-11-07T13:29:50.132Z,95453.81
2022-11-07T13:33:35.379Z,95463.03
2022-11-07T13:37:21.707Z,95474.63
2022-11-07T13:41:06.249Z,95465.69
2022-11-07T13:44:54.963Z,95470.53
2022-11-07T13:48:46.918Z,95469.94
2022-11-07T13:52:36.020Z,95476.06
2022-11-07T13:56:29.019Z,95464.19
2022-11-07T14:00:14.907Z,95472.72
2022-11-07T14:03:59.032Z,95465.09
2022-11-07T14:07:44.138Z,95470.31
2022-11-07T14:11:27.095Z,95484.44
2022-11-07T14:15:15.141Z,95464.97
2022-11-07T14:19:00.878Z,95467.25
2022-11-07T14:22:50.022Z,95468.59
2022-11-07T14:26:33.958Z,95471.00
2022-11-07T14:30:18.183Z,95466.75
2022-11-07T14:34:04.931Z,95471.91
2022-11-07T14:37:47.926Z,95472.59
2022-11-07T14:41:31.097Z,95470.97
2022-11-07T14:45:23.791Z,95466.81
2022-11-07T14:49:24.850Z,95469.75
2022-11-07T14:53:10.249Z,95467.84
2022-11-07T14:56:55.696Z,95465.81
2022-11-07T15:00:39.119Z,95465.38
2022-11-07T15:04:30.656Z,95467.16
2022-11-07T15:08:27.275Z,95468.94
2022-11-07T15:12:18.587Z,95468.00
2022-11-07T15:16:04.406Z,95460.38
2022-11-07T15:19:57.879Z,95468.75
2022-11-07T15:23:40.635Z,95460.66
2022-11-07T15:27:29.496Z,95462.13
2022-11-07T15:31:19.814Z,95470.06
2022-11-07T15:35:43.056Z,95463.78
2022-11-07T15:39:18.851Z,95466.69
2022-11-07T15:43:01.672Z,95463.91
2022-11-07T15:46:44.389Z,95478.59
2022-11-07T15:50:28.390Z,95472.09
2022-11-07T15:54:12.997Z,95475.88
2022-11-07T15:57:56.103Z,95475.91
2022-11-07T16:01:39.125Z,95471.00
2022-11-07T16:05:21.977Z,95479.03
2022-11-07T16:09:11.466Z,95472.47
2022-11-07T16:12:54.717Z,95471.31
2022-11-07T16:16:37.922Z,95479.31
2022-11-07T16:20:22.959Z,95478.97
2022-11-07T16:24:07.650Z,95485.53
2022-11-07T16:27:51.921Z,95480.50
2022-11-07T16:31:34.608Z,95478.69
2022-11-07T16:35:17.555Z,95484.78
2022-11-07T16:39:01.479Z,95484.00
2022-11-07T16:42:45.862Z,95488.47
2022-11-07T16:46:29.991Z,95486.06
2022-11-07T16:50:15.084Z,95486.50
2022-11-07T16:53:57.759Z,95495.44
2022-11-07T16:57:41.196Z,95487.19
2022-11-07T17:01:26.594Z,95482.22
2022-11-07T17:05:09.659Z,95479.50
2022-11-07T17:08:52.462Z,95474.75
2022-11-07T17:12:35.384Z,95480.59
2022-11-07T17:16:19.914Z,95483.72
2022-11-07T17:20:04.093Z,95480.63
2022-11-07T17:23:46.781Z,95484.38
2022-11-07T17:27:29.399Z,95492.53
2022-11-07T17:31:12.118Z,95485.66
2022-11-07T17:35:25.684Z,95493.78
2022-11-07T17:39:03.440Z,95487.31
2022-11-07T17:42:46.174Z,95483.69
2022-11-07T17:46:31.831Z,95493.41
2022-11-07T17:50:15.209Z,95486.56
2022-11-07T17:53:59.997Z,95480.88
2022-11-07T17:57:44.509Z,95491.03
2022-11-07T18:01:29.745Z,95478.06
2022-11-07T18:05:15.046Z,95480.25
2022-11-07T18:09:00.185Z,95487.34
2022-11-07T18:12:43.563Z,95471.97
2022-11-07T18:16:28.785Z,95467.50
2022-11-07T18:20:12.080Z,95471.34
2022-11-07T18:23:55.294Z,95473.97
2022-11-07T18:27:39.265Z,95487.13
2022-11-07T18:31:25.334Z,95478.00
2022-11-07T18:35:08.261Z,95469.50
2022-11-07T18:38:50.979Z,95473.16
2022-11-07T18:42:33.578Z,95470.72
2022-11-07T18:46:19.231Z,95467.06
2022-11-07T18:50:02.036Z,95466.88
2022-11-07T18:53:45.373Z,95467.25
2022-11-07T18:57:28.043Z,95468.69
2022-11-07T19:01:13.570Z,95470.44
2022-11-07T19:04:57.607Z,95462.97
2022-11-07T19:08:42.041Z,95460.13
2022-11-07T19:12:24.734Z,95464.16
2022-11-07T19:16:08.725Z,95462.91
2022-11-07T19:19:51.442Z,95462.28
2022-11-07T19:23:36.724Z,95465.69
2022-11-07T19:27:19.391Z,95479.03
2022-11-07T19:31:03.909Z,95476.16
2022-11-07T19:34:46.682Z,95465.63
2022-11-07T19:38:30.331Z,95470.28
2022-11-07T19:42:14.371Z,95473.69
2022-11-07T19:46:07.228Z,95475.25
2022-11-07T19:49:50.047Z,95467.94
2022-11-07T19:53:32.759Z,95467.53
2022-11-07T19:57:17.088Z,95472.38
2022-11-07T20:00:59.821Z,95461.44
2022-11-07T20:04:44.836Z,95477.78
2022-11-07T20:08:28.085Z,95460.78
2022-11-07T20:12:11.293Z,95480.38
2022-11-07T20:15:58.538Z,95482.19
2022-11-07T20:19:41.214Z,95481.13
2022-11-07T20:23:24.124Z,95481.66
2022-11-07T20:27:06.899Z,95472.13
2022-11-07T20:30:49.805Z,95485.81
2022-11-07T20:34:33.973Z,95484.94
2022-11-07T20:38:16.668Z,95489.72
2022-11-07T20:41:59.283Z,95494.72
2022-11-07T20:45:41.922Z,95496.09
2022-11-07T20:49:25.068Z,95490.22
2022-11-07T20:53:09.304Z,95489.13
2022-11-07T20:56:51.986Z,95479.84
2022-11-07T21:00:34.733Z,95473.97
2022-11-07T21:04:18.172Z,95476.03
2022-11-07T21:08:00.998Z,95472.72
2022-11-07T21:11:45.056Z,95476.41
2022-11-07T21:15:27.866Z,95476.34
2022-11-07T21:19:14.019Z,95476.09
2022-11-07T21:22:56.727Z,95482.09
2022-11-07T21:26:40.219Z,95478.81
2022-11-07T21:30:24.195Z,95477.69
2022-11-07T21:34:07.332Z,95484.84
2022-11-07T21:37:50.377Z,95483.19
2022-11-07T21:41:33.631Z,95493.00
2022-11-07T21:45:18.853Z,95489.31
2022-11-07T21:49:04.262Z,95497.38
2022-11-07T21:52:47.356Z,95485.25
2022-11-07T21:56:33.339Z,95495.13
2022-11-07T22:00:17.335Z,95489.88
2022-11-07T22:04:06.813Z,95485.38
2022-11-07T22:07:51.345Z,95487.38
2022-11-07T22:11:33.984Z,95480.88
2022-11-07T22:15:16.889Z,95482.44
2022-11-07T22:19:01.743Z,95483.63
2022-11-07T22:22:44.393Z,95470.88
2022-11-07T22:26:28.972Z,95475.88
2022-11-07T22:30:12.495Z,95481.94
2022-11-07T22:33:57.735Z,95473.63
2022-11-07T22:37:40.466Z,95462.53
2022-11-07T22:41:24.618Z,95461.72
2022-11-07T22:45:10.003Z,95462.09
2022-11-07T22:48:53.245Z,95461.28
2022-11-07T22:52:35.933Z,95458.03
2022-11-07T22:56:20.476Z,95459.38
2022-11-07T23:00:20.128Z,95457.13
2022-11-07T23:04:05.941Z,95459.94
2022-11-07T23:07:50.336Z,95460.28
2022-11-07T23:11:49.784Z,95454.25
2022-11-07T23:15:32.669Z,95450.25
2022-11-07T23:19:18.309Z,95451.25
2022-11-07T23:23:02.215Z,95453.25
2022-11-07T23:26:45.080Z,95447.38
2022-11-07T23:30:27.916Z,95438.53
2022-11-07T23:34:11.240Z,95439.34
2022-11-07T23:37:55.383Z,95434.28
2022-11-07T23:41:38.157Z,95434.84
2022-11-07T23:45:38.528Z,95437.03
2022-11-07T23:49:50.056Z,95437.09
2022-11-07T23:53:54.623Z,95431.63
2022-11-07T23:57:58.171Z,95424.75
